Home > Products > Valid Products > MTR

000
SAUS44 KLIX 021224
MTRBVE
SPECI KBVE 021223Z AUTO 15003KT 3SM BR FEW003 26/25 A2999 RMK AO2
T02560250





000
SAUS44 KLIX 021152
MTRBVE
METAR KBVE 021151Z AUTO 15004KT 10SM CLR 26/25 A2998 RMK AO2 SLP152
70007 T02560250 10256 20250 53012





000
SAUS44 KLIX 021052
MTRBVE
METAR KBVE 021051Z AUTO 13004KT 10SM CLR 26/25 A2997 RMK AO2 SLP148
T02560250





000
SAUS44 KLIX 020952
MTRBVE
METAR KBVE 020951Z AUTO 13004KT 9SM CLR 25/24 A2995 RMK AO2 SLP142
T02500244





000
SAUS44 KLIX 020852
MTRBVE
METAR KBVE 020851Z AUTO 00000KT 10SM CLR 25/24 A2995 RMK AO2 SLP140
T02500244 58001





000
SAUS44 KLIX 020752
MTRBVE
METAR KBVE 020751Z AUTO 13003KT 10SM CLR 25/25 A2995 RMK AO2 SLP141
T02500250





000
SAUS44 KLIX 020652
MTRBVE
METAR KBVE 020651Z AUTO 14004KT 10SM CLR 26/25 A2995 RMK AO2 SLP141
T02560250





000
SAUS44 KLIX 020552
MTRBVE
METAR KBVE 020551Z AUTO 14004KT 10SM CLR 26/25 A2995 RMK AO2 SLP141
T02560250 10261 20256 402780244 58004





000
SAUS44 KLIX 020452
MTRBVE
METAR KBVE 020451Z AUTO 11004KT 10SM CLR 26/25 A2996 RMK AO2 SLP143
T02560250





000
SAUS44 KLIX 020352
MTRBVE
METAR KBVE 020351Z AUTO 10003KT 10SM CLR 26/24 A2996 RMK AO2 SLP145
T02560244





000
SAUS44 KLIX 020252
MTRBVE
METAR KBVE 020251Z AUTO 12004KT 10SM SCT065 26/25 A2996 RMK AO2
SLP145 T02560250 51014





000
SAUS44 KLIX 020152
MTRBVE
METAR KBVE 020151Z AUTO 10003KT 10SM FEW065 26/25 A2995 RMK AO2
SLP142 T02560250





000
SAUS44 KLIX 020052
MTRBVE
METAR KBVE 020051Z AUTO 10003KT 10SM FEW060 26/24 A2993 RMK AO2
SLP135 T02610244





000
SAUS44 KLIX 012352
MTRBVE
METAR KBVE 012351Z AUTO 13006KT 10SM FEW055 FEW095 26/24 A2992 RMK
AO2 SLP131 60000 T02610244 10278 20256 51008





000
SAUS44 KLIX 012252
MTRBVE
METAR KBVE 012251Z AUTO 13005KT 10SM CLR 27/24 A2991 RMK AO2 SLP128
T02670244





000
SAUS44 KLIX 012152
MTRBVE
METAR KBVE 012151Z AUTO 13005KT 10SM FEW013 FEW065 27/25 A2991 RMK
AO2 RAE2054 SLP127 P0000 T02720250





000
SAUS44 KLIX 012052
MTRBVE
METAR KBVE 012051Z AUTO 09006KT 10SM -RA FEW035 SCT060 BKN075 27/25
A2990 RMK AO2 RAB26 SLP123 P0000 60000 T02670250 56015





000
SAUS44 KLIX 012013
MTRBVE
SPECI KBVE 012011Z AUTO 11005KT 10SM FEW019 SCT025 OVC031 27/24
A2992 RMK AO2 T02720244





000
SAUS44 KLIX 011952
MTRBVE
METAR KBVE 011951Z AUTO 11005KT 10SM FEW017 SCT022 BKN028 27/24
A2992 RMK AO2 SLP130 T02720239





000
SAUS44 KLIX 011852
MTRBVE
METAR KBVE 011851Z AUTO 13007KT 10SM SCT065 27/24 A2992 RMK AO2
SLP130 T02670239





000
SAUS44 KLIX 011752
MTRBVE
METAR KBVE 011751Z AUTO 09007KT 10SM CLR 27/24 A2994 RMK AO2 RAE10
SLP138 P0000 60007 T02670244 10278 20250 58005





000
SAUS44 KLIX 011652
MTRBVE
METAR KBVE 011651Z AUTO 07003KT 10SM -RA FEW022 SCT065 OVC095 26/24
A2997 RMK AO2 SLP147 P0007 T02610244





000
SAUS44 KLIX 011552
MTRBVE
METAR KBVE 011551Z AUTO 12004KT 10SM -RA FEW095 27/24 A2995 RMK AO2
RAB51 SLP143 P0000 T02670239





000
SAUS44 KLIX 011453
MTRBVE
METAR KBVE 011451Z AUTO 12006KT 10SM FEW045 27/23 A2996 RMK AO2
SLP143 T02720233 53017





000
SAUS44 KLIX 011352
MTRBVE
METAR KBVE 011351Z AUTO 11006KT 10SM CLR 27/24 A2993 RMK AO2 SLP136
T02720239





000
SAUS44 KLIX 011252
MTRBVE
METAR KBVE 011251Z AUTO 10005KT 10SM CLR 26/23 A2992 RMK AO2 SLP130
T02610233





000
SAUS44 KLIX 011228
MTRBVE
SPECI KBVE 011227Z AUTO 09004KT 10SM FEW002 26/23 A2991 RMK AO2
T02560233





000
SAUS44 KLIX 011152
MTRBVE
METAR KBVE 011151Z AUTO 10003KT 10SM CLR 25/23 A2990 RMK AO2 SLP126
70001 T02500233 10250 20244 53007





000
SAUS44 KLIX 011052
MTRBVE
METAR KBVE 011051Z AUTO 09003KT 10SM CLR 25/23 A2989 RMK AO2 SLP122
T02500233





000
SAUS44 KLIX 010952
MTRBVE
METAR KBVE 010951Z AUTO 10004KT 10SM CLR 24/23 A2988 RMK AO2 SLP119
T02440233





000
SAUS44 KLIX 010852
MTRBVE
METAR KBVE 010851Z AUTO 10003KT 10SM CLR 25/23 A2988 RMK AO2 SLP118
T02500233 55001





000
SAUS44 KLIX 010752
MTRBVE
METAR KBVE 010751Z AUTO 10004KT 10SM CLR 25/23 A2988 RMK AO2 SLP117
T02500233





000
SAUS44 KLIX 010652
MTRBVE
METAR KBVE 010651Z AUTO 09004KT 10SM CLR 25/23 A2989 RMK AO2 SLP119
T02500233





000
SAUS44 KLIX 010552
MTRBVE
METAR KBVE 010551Z AUTO 11004KT 10SM CLR 25/23 A2989 RMK AO2 SLP120
T02500233 10261 20250 402890250 55001





000
SAUS44 KLIX 010452
MTRBVE
METAR KBVE 010451Z AUTO 11005KT 10SM CLR 25/23 A2988 RMK AO2 SLP118
T02500233





000
SAUS44 KLIX 010352
MTRBVE
METAR KBVE 010351Z AUTO 11005KT 10SM CLR 25/23 A2989 RMK AO2 SLP121
T02500233





000
SAUS44 KLIX 010252
MTRBVE
METAR KBVE 010251Z AUTO 12004KT 10SM CLR 25/23 A2989 RMK AO2 SLP121
T02500233 53009





000
SAUS44 KLIX 010152
MTRBVE
METAR KBVE 010151Z AUTO 10006KT 10SM CLR 26/23 A2988 RMK AO2 SLP118
T02560233





000
SAUS44 KLIX 010052
MTRBVE
METAR KBVE 010051Z AUTO 10006KT 10SM CLR 26/23 A2987 RMK AO2 SLP114
T02610233





000
SAUS44 KLIX 302352
MTRBVE
METAR KBVE 302351Z AUTO 09007KT 10SM CLR 26/23 A2986 RMK AO2 SLP112
60000 T02610233 10283 20261 53002





000
SAUS44 KLIX 302252
MTRBVE
METAR KBVE 302251Z AUTO 08009KT 10SM SCT020 SCT025 27/23 A2985 RMK
AO2 RAB07E17 SLP108 P0000 T02670233





000
SAUS44 KLIX 302251
MTRBVE
SPECI KBVE 302249Z AUTO 08008KT 10SM SCT020 BKN025 27/23 A2985 RMK
AO2 RAB07E17 P0000





000
SAUS44 KLIX 302152
MTRBVE
METAR KBVE 302151Z AUTO 07009KT 10SM FEW017 SCT025 28/23 A2986 RMK
AO2 SLP110 T02780233





000
SAUS44 KLIX 302110
MTRBVE
SPECI KBVE 302109Z AUTO 07007KT 10SM FEW018 SCT024 28/23 A2986 RMK
AO2 T02780228





000
SAUS44 KLIX 302052
MTRBVE
METAR KBVE 302051Z AUTO 08009KT 10SM SCT018 BKN024 28/23 A2986 RMK
AO2 SLP111 T02780233 56012





000
SAUS44 KLIX 302033
MTRBVE
SPECI KBVE 302032Z AUTO 05007KT 10SM FEW018 BKN024 27/23 A2986 RMK
AO2 T02720233





000
SAUS44 KLIX 301952
MTRBVE
METAR KBVE 301951Z AUTO 06009KT 10SM CLR 28/23 A2986 RMK AO2 SLP112
T02780233





000
SAUS44 KLIX 301852
MTRBVE
METAR KBVE 301851Z AUTO 06009KT 10SM CLR 27/24 A2988 RMK AO2 SLP118
T02720239





000
SAUS44 KLIX 301752
MTRBVE
METAR KBVE 301751Z AUTO 05007KT 10SM CLR 28/24 A2989 RMK AO2 SLP123
60001 T02830244 10289 20250 58003





000
SAUS44 KLIX 301652
MTRBVE
METAR KBVE 301651Z AUTO 03006KT 10SM CLR 29/24 A2990 RMK AO2 SLP126
T02890239





000
SAUS44 KLIX 301642
MTRBVE
SPECI KBVE 301640Z AUTO VRB05KT 10SM FEW002 28/24 A2991 RMK AO2
T02830239





000
SAUS44 KLIX 301552
MTRBVE
METAR KBVE 301551Z AUTO 02006KT 10SM CLR 29/24 A2991 RMK AO2 SLP127
T02890244





000
SAUS44 KLIX 301520
MTRBVE
SPECI KBVE 301518Z AUTO 04005KT 10SM FEW002 28/24 A2991 RMK AO2
T02830239





000
SAUS44 KLIX 301452
MTRBVE
METAR KBVE 301451Z AUTO 04005KT 10SM CLR 28/24 A2990 RMK AO2 SLP125
60001 T02780239 53008





000
SAUS44 KLIX 301352
MTRBVE
METAR KBVE 301351Z AUTO 04003KT 10SM FEW070 27/23 A2989 RMK AO2
SLP122 T02670233





000
SAUS44 KLIX 301252
MTRBVE
METAR KBVE 301251Z AUTO 00000KT 10SM FEW018 BKN070 26/24 A2989 RMK
AO2 RAE12 SLP121 P0001 T02560239





000
SAUS44 KLIX 301203
MTRBVE
SPECI KBVE 301202Z AUTO 00000KT 7SM -RA FEW020 BKN055 OVC070 25/23
A2988 RMK AO2 P0001 T02500233





000
SAUS44 KLIX 301152
MTRBVE
METAR KBVE 301151Z AUTO 09004KT 4SM -RA BR FEW020 BKN026 OVC047
25/23 A2988 RMK AO2 RAB32 SLP118 P0002 60002 70002 T02500233 10261
20250 53009





000
SAUS44 KLIX 301126
MTRBVE
SPECI KBVE 301125Z AUTO 00000KT 10SM SCT012 SCT018 BKN029 26/24
A2988 RMK AO2 T02560239





000
SAUS44 KLIX 301106
MTRBVE
SPECI KBVE 301105Z AUTO 00000KT 10SM BKN013 BKN022 BKN070 25/24
A2988 RMK AO2 T02500239





000
SAUS44 KLIX 301052
MTRBVE
METAR KBVE 301051Z AUTO 00000KT 10SM FEW017 FEW022 SCT070 25/24
A2987 RMK AO2 SLP115 T02500239





000
SAUS44 KLIX 300953
MTRBVE
METAR KBVE 300951Z AUTO 35003KT 10SM CLR 25/23 A2986 RMK AO2 SLP111
T02500233





000
SAUS44 KLIX 300937
MTRBVE
SPECI KBVE 300936Z AUTO 00000KT 10SM SCT021 25/24 A2986 RMK AO2
T02500239





000
SAUS44 KLIX 300922
MTRBVE
SPECI KBVE 300921Z AUTO 00000KT 10SM SCT020 BKN024 25/24 A2986 RMK
AO2 T02500239





000
SAUS44 KLIX 300852
MTRBVE
METAR KBVE 300851Z AUTO 00000KT 10SM CLR 25/23 A2985 RMK AO2 SLP109
T02500233 58003





000
SAUS44 KLIX 300753
MTRBVE
METAR KBVE 300751Z AUTO 00000KT 10SM CLR 25/23 A2986 RMK AO2 SLP111
T02500233





000
SAUS44 KLIX 300652
MTRBVE
METAR KBVE 300651Z AUTO 00000KT 10SM CLR 26/23 A2987 RMK AO2 SLP113
T02560233





000
SAUS44 KLIX 300626
MTRBVE
SPECI KBVE 300625Z AUTO 00000KT 10SM SCT013 SCT019 26/24 A2986 RMK
AO2 T02610239





000
SAUS44 KLIX 300619
MTRBVE
SPECI KBVE 300618Z AUTO VRB03KT 10SM BKN013 BKN020 BKN024 26/24
A2986 RMK AO2 T02610239





000
SAUS44 KLIX 300605
MTRBVE
SPECI KBVE 300604Z AUTO 03004KT 10SM SCT014 BKN019 26/24 A2986 RMK
AO2 T02560239





000
SAUS44 KLIX 300552
MTRBVE
METAR KBVE 300551Z AUTO 00000KT 10SM SCT014 SCT019 26/24 A2986 RMK
AO2 SLP112 T02610239 10261 20256 402830244 58007





000
SAUS44 KLIX 300452
MTRBVE
METAR KBVE 300451Z AUTO 03003KT 10SM CLR 26/23 A2987 RMK AO2 SLP115
T02560233





000
SAUS44 KLIX 300352
MTRBVE
METAR KBVE 300351Z AUTO 03003KT 9SM CLR 26/23 A2989 RMK AO2 SLP119
T02560233





000
SAUS44 KLIX 300252
MTRBVE
METAR KBVE 300251Z AUTO 01003KT 8SM CLR 26/23 A2988 RMK AO2 SLP119
T02560233 51005





000
SAUS44 KLIX 300152
MTRBVE
METAR KBVE 300151Z AUTO 03003KT 7SM CLR 26/23 A2988 RMK AO2 SLP119
T02560228





000
SAUS44 KLIX 300052
MTRBVE
METAR KBVE 300051Z AUTO 00000KT 7SM CLR 26/23 A2987 RMK AO2 SLP116
T02610228





000
SAUS44 KLIX 292352
MTRBVE
METAR KBVE 292351Z AUTO 00000KT 5SM HZ CLR 26/22 A2987 RMK AO2
SLP114 T02610222 10278 20261 55000





000
SAUS44 KLIX 292252
MTRBVE
METAR KBVE 292251Z AUTO 03004KT 8SM CLR 27/22 A2986 RMK AO2 SLP111
T02720222





000
SAUS44 KLIX 292153
MTRBVE
METAR KBVE 292151Z AUTO 02006KT 9SM FEW015 28/23 A2986 RMK AO2
SLP110 T02780228





000
SAUS44 KLIX 292144
MTRBVE
SPECI KBVE 292143Z AUTO VRB04KT 10SM SCT015 27/23 A2986 RMK AO2
T02720228





000
SAUS44 KLIX 292108
MTRBVE
SPECI KBVE 292107Z AUTO VRB05KT 10SM BKN015 OVC020 27/23 A2987 RMK
AO2 T02720233





000
SAUS44 KLIX 292053
MTRBVE
METAR KBVE 292051Z AUTO 02006KT 9SM BKN014 OVC021 27/23 A2987 RMK
AO2 SLP114 T02670233 56012





000
SAUS44 KLIX 292044
MTRBVE
SPECI KBVE 292043Z AUTO 04006KT 9SM OVC013 27/23 A2987 RMK AO2
T02670233





000
SAUS44 KLIX 292035
MTRBVE
SPECI KBVE 292034Z AUTO 03006KT 9SM OVC015 27/23 A2987 RMK AO2
T02670233





000
SAUS44 KLIX 291953
MTRBVE
METAR KBVE 291951Z AUTO VRB05KT 10SM BKN013 27/24 A2987 RMK AO2
SLP115 T02720239





000
SAUS44 KLIX 291906
MTRBVE
SPECI KBVE 291905Z AUTO 01006KT 10SM BKN012 BKN021 28/24 A2987 RMK
AO2 T02780239





000
SAUS44 KLIX 291852
MTRBVE
METAR KBVE 291851Z AUTO VRB05KT 10SM SCT012 BKN018 BKN023 27/24
A2988 RMK AO2 SLP118 T02720239





000
SAUS44 KLIX 291834
MTRBVE
SPECI KBVE 291833Z AUTO 36007KT 10SM FEW012 BKN020 28/24 A2988 RMK
AO2 T02780239





000
SAUS44 KLIX 291752
MTRBVE
METAR KBVE 291751Z AUTO VRB06KT 10SM BKN014 28/24 A2990 RMK AO2
SLP126 T02780239 10283 20250 58006





000
SAUS44 KLIX 291652
MTRBVE
METAR KBVE 291651Z AUTO 03006KT 10SM SCT012 28/24 A2992 RMK AO2
SLP130 T02780239





000
SAUS44 KLIX 291640
MTRBVE
SPECI KBVE 291639Z AUTO VRB05KT 10SM SCT012 SCT025 BKN095 28/24
A2992 RMK AO2 T02780239





000
SAUS44 KLIX 291630
MTRBVE
SPECI KBVE 291629Z AUTO 03007KT 10SM SCT010 BKN025 BKN095 28/24
A2992 RMK AO2 T02780239





000
SAUS44 KLIX 291617
MTRBVE
SPECI KBVE 291616Z AUTO 03007KT 360V060 10SM BKN010 BKN015 BKN095
28/24 A2992 RMK AO2 T02780239





000
SAUS44 KLIX 291552
MTRBVE
METAR KBVE 291551Z AUTO 03005KT 10SM SCT009 BKN090 27/24 A2992 RMK
AO2 SLP132 T02720244





000
SAUS44 KLIX 291526
MTRBVE
SPECI KBVE 291525Z AUTO 02008KT 10SM SCT009 BKN090 27/24 A2992 RMK
AO2 T02720244





000
SAUS44 KLIX 291504
MTRBVE
SPECI KBVE 291503Z AUTO 02008KT 10SM FEW012 FEW024 SCT095 27/24
A2992 RMK AO2 T02720244





000
SAUS44 KLIX 291453
MTRBVE
METAR KBVE 291451Z AUTO 04006KT 10SM SCT010 SCT016 BKN024 27/24
A2992 RMK AO2 SLP132 T02670239 53009





000
SAUS44 KLIX 291437
MTRBVE
SPECI KBVE 291436Z AUTO 04007KT 10SM BKN012 BKN019 27/24 A2992 RMK
AO2 T02670239





000
SAUS44 KLIX 291413
MTRBVE
SPECI KBVE 291412Z AUTO 05005KT 10SM BKN009 BKN013 OVC110 27/24
A2991 RMK AO2 T02670244





000
SAUS44 KLIX 291352
MTRBVE
METAR KBVE 291351Z AUTO 04005KT 10SM FEW008 OVC110 27/24 A2991 RMK
AO2 SLP127 T02670244





000
SAUS44 KLIX 291253
MTRBVE
METAR KBVE 291251Z AUTO 04006KT 10SM BKN110 25/23 A2990 RMK AO2
SLP125 T02500233





    US Dept of Commerce
    National Oceanic and Atmospheric Administration
    National Weather Service
    1325 East West Highway
    Silver Spring, MD 20910
    Page Author: NWS Internet Services Team
Disclaimer
Information Quality
Credits
Glossary
Privacy Policy
Freedom of Information Act (FOIA)
About Us
Career Opportunities